sensor_id;sensor_type;location;lat;lon;timestamp;P1;durP1;ratioP1;P2;durP2;ratioP2
12972;SDS011;6551;51.056;9.466;2023-04-08T00:02:22;4.23;;;2.97;;
12972;SDS011;6551;51.056;9.466;2023-04-08T00:04:48;5.17;;;3.47;;
12972;SDS011;6551;51.056;9.466;2023-04-08T00:07:14;2.80;;;2.30;;
12972;SDS011;6551;51.056;9.466;2023-04-08T00:09:39;3.30;;;2.57;;
12972;SDS011;6551;51.056;9.466;2023-04-08T00:12:05;3.27;;;2.70;;
12972;SDS011;6551;51.056;9.466;2023-04-08T00:14:31;4.90;;;3.83;;
12972;SDS011;6551;51.056;9.466;2023-04-08T00:16:57;2.30;;;1.87;;
12972;SDS011;6551;51.056;9.466;2023-04-08T00:19:23;3.37;;;2.83;;
12972;SDS011;6551;51.056;9.466;2023-04-08T00:21:52;4.70;;;3.60;;
12972;SDS011;6551;51.056;9.466;2023-04-08T00:24:19;4.03;;;3.00;;
12972;SDS011;6551;51.056;9.466;2023-04-08T00:26:46;2.87;;;2.47;;
12972;SDS011;6551;51.056;9.466;2023-04-08T00:29:11;2.30;;;2.10;;
12972;SDS011;6551;51.056;9.466;2023-04-08T00:31:38;3.77;;;2.73;;
12972;SDS011;6551;51.056;9.466;2023-04-08T00:34:04;2.20;;;2.00;;
12972;SDS011;6551;51.056;9.466;2023-04-08T00:36:30;6.03;;;5.10;;
12972;SDS011;6551;51.056;9.466;2023-04-08T00:38:55;6.87;;;5.07;;
12972;SDS011;6551;51.056;9.466;2023-04-08T00:41:22;3.17;;;2.10;;
12972;SDS011;6551;51.056;9.466;2023-04-08T00:43:48;5.97;;;5.30;;
12972;SDS011;6551;51.056;9.466;2023-04-08T00:46:14;2.37;;;2.13;;
12972;SDS011;6551;51.056;9.466;2023-04-08T00:48:40;3.67;;;2.67;;
12972;SDS011;6551;51.056;9.466;2023-04-08T00:51:06;3.77;;;2.10;;
12972;SDS011;6551;51.056;9.466;2023-04-08T00:53:33;4.10;;;2.80;;
12972;SDS011;6551;51.056;9.466;2023-04-08T00:56:00;2.47;;;2.03;;
12972;SDS011;6551;51.056;9.466;2023-04-08T00:58:26;3.10;;;2.07;;
12972;SDS011;6551;51.056;9.466;2023-04-08T01:00:57;2.93;;;2.47;;
12972;SDS011;6551;51.056;9.466;2023-04-08T01:04:00;3.13;;;2.30;;
12972;SDS011;6551;51.056;9.466;2023-04-08T01:07:47;3.70;;;2.57;;
12972;SDS011;6551;51.056;9.466;2023-04-08T01:10:24;3.53;;;1.93;;
12972;SDS011;6551;51.056;9.466;2023-04-08T01:12:56;2.97;;;2.37;;
12972;SDS011;6551;51.056;9.466;2023-04-08T01:15:29;2.50;;;2.27;;
12972;SDS011;6551;51.056;9.466;2023-04-08T01:17:58;4.57;;;2.70;;
12972;SDS011;6551;51.056;9.466;2023-04-08T01:20:26;6.23;;;3.87;;
12972;SDS011;6551;51.056;9.466;2023-04-08T01:25:33;3.17;;;1.87;;
12972;SDS011;6551;51.056;9.466;2023-04-08T01:28:06;3.53;;;2.50;;
12972;SDS011;6551;51.056;9.466;2023-04-08T01:30:40;3.90;;;2.70;;
12972;SDS011;6551;51.056;9.466;2023-04-08T01:33:06;2.43;;;2.23;;
12972;SDS011;6551;51.056;9.466;2023-04-08T01:35:36;3.07;;;2.73;;
12972;SDS011;6551;51.056;9.466;2023-04-08T01:38:02;3.47;;;2.77;;
12972;SDS011;6551;51.056;9.466;2023-04-08T01:40:31;2.10;;;1.90;;
12972;SDS011;6551;51.056;9.466;2023-04-08T01:43:00;2.43;;;1.87;;
12972;SDS011;6551;51.056;9.466;2023-04-08T01:45:28;2.53;;;2.10;;
12972;SDS011;6551;51.056;9.466;2023-04-08T01:47:55;2.77;;;2.47;;
12972;SDS011;6551;51.056;9.466;2023-04-08T01:50:22;3.27;;;2.30;;
12972;SDS011;6551;51.056;9.466;2023-04-08T01:52:52;2.70;;;2.30;;
12972;SDS011;6551;51.056;9.466;2023-04-08T01:55:20;4.23;;;2.60;;
12972;SDS011;6551;51.056;9.466;2023-04-08T01:57:49;2.33;;;1.83;;
12972;SDS011;6551;51.056;9.466;2023-04-08T02:00:20;4.27;;;3.10;;
12972;SDS011;6551;51.056;9.466;2023-04-08T02:02:53;2.37;;;1.93;;
12972;SDS011;6551;51.056;9.466;2023-04-08T02:05:22;3.43;;;2.50;;
12972;SDS011;6551;51.056;9.466;2023-04-08T02:07:48;3.17;;;2.50;;
12972;SDS011;6551;51.056;9.466;2023-04-08T02:10:14;4.77;;;2.27;;
12972;SDS011;6551;51.056;9.466;2023-04-08T02:12:42;4.20;;;3.03;;
12972;SDS011;6551;51.056;9.466;2023-04-08T02:15:10;3.60;;;2.57;;
12972;SDS011;6551;51.056;9.466;2023-04-08T02:17:42;2.73;;;2.20;;
12972;SDS011;6551;51.056;9.466;2023-04-08T02:20:36;5.80;;;4.00;;
12972;SDS011;6551;51.056;9.466;2023-04-08T02:23:23;3.17;;;2.70;;
12972;SDS011;6551;51.056;9.466;2023-04-08T02:25:57;3.10;;;2.10;;
12972;SDS011;6551;51.056;9.466;2023-04-08T02:28:24;2.87;;;2.23;;
12972;SDS011;6551;51.056;9.466;2023-04-08T02:30:54;4.20;;;2.90;;
12972;SDS011;6551;51.056;9.466;2023-04-08T02:33:24;2.67;;;2.30;;
12972;SDS011;6551;51.056;9.466;2023-04-08T02:35:53;4.00;;;3.60;;
12972;SDS011;6551;51.056;9.466;2023-04-08T02:38:21;4.00;;;2.53;;
12972;SDS011;6551;51.056;9.466;2023-04-08T02:40:48;3.43;;;2.50;;
12972;SDS011;6551;51.056;9.466;2023-04-08T02:43:16;4.50;;;3.70;;
12972;SDS011;6551;51.056;9.466;2023-04-08T02:45:43;4.37;;;3.10;;
12972;SDS011;6551;51.056;9.466;2023-04-08T02:48:12;3.80;;;3.17;;
12972;SDS011;6551;51.056;9.466;2023-04-08T02:50:38;4.27;;;3.73;;
12972;SDS011;6551;51.056;9.466;2023-04-08T02:53:08;4.60;;;3.83;;
12972;SDS011;6551;51.056;9.466;2023-04-08T02:55:37;5.83;;;5.07;;
12972;SDS011;6551;51.056;9.466;2023-04-08T02:58:04;6.67;;;5.27;;
12972;SDS011;6551;51.056;9.466;2023-04-08T03:00:31;8.23;;;6.17;;
12972;SDS011;6551;51.056;9.466;2023-04-08T03:02:57;7.20;;;5.67;;
12972;SDS011;6551;51.056;9.466;2023-04-08T03:05:24;4.40;;;2.87;;
12972;SDS011;6551;51.056;9.466;2023-04-08T03:07:52;8.30;;;6.47;;
12972;SDS011;6551;51.056;9.466;2023-04-08T03:10:18;7.73;;;4.53;;
12972;SDS011;6551;51.056;9.466;2023-04-08T03:12:48;6.90;;;5.13;;
12972;SDS011;6551;51.056;9.466;2023-04-08T03:15:14;8.17;;;5.67;;
12972;SDS011;6551;51.056;9.466;2023-04-08T03:17:40;5.30;;;4.70;;
12972;SDS011;6551;51.056;9.466;2023-04-08T03:20:06;3.67;;;2.73;;
12972;SDS011;6551;51.056;9.466;2023-04-08T03:22:34;5.03;;;4.03;;
12972;SDS011;6551;51.056;9.466;2023-04-08T03:25:00;4.03;;;2.90;;
12972;SDS011;6551;51.056;9.466;2023-04-08T03:27:26;3.63;;;2.97;;
12972;SDS011;6551;51.056;9.466;2023-04-08T03:29:53;4.13;;;3.30;;
12972;SDS011;6551;51.056;9.466;2023-04-08T03:32:22;3.80;;;3.00;;
12972;SDS011;6551;51.056;9.466;2023-04-08T03:34:51;3.60;;;2.77;;
12972;SDS011;6551;51.056;9.466;2023-04-08T03:37:17;3.40;;;2.43;;
12972;SDS011;6551;51.056;9.466;2023-04-08T03:39:43;3.60;;;2.97;;
12972;SDS011;6551;51.056;9.466;2023-04-08T03:42:09;3.30;;;2.30;;
12972;SDS011;6551;51.056;9.466;2023-04-08T03:44:34;3.10;;;2.40;;
12972;SDS011;6551;51.056;9.466;2023-04-08T03:47:01;5.23;;;2.90;;
12972;SDS011;6551;51.056;9.466;2023-04-08T03:49:28;6.90;;;5.13;;
12972;SDS011;6551;51.056;9.466;2023-04-08T03:51:54;3.70;;;3.10;;
12972;SDS011;6551;51.056;9.466;2023-04-08T03:54:22;3.70;;;2.10;;
12972;SDS011;6551;51.056;9.466;2023-04-08T03:56:49;3.77;;;2.90;;
12972;SDS011;6551;51.056;9.466;2023-04-08T03:59:14;5.13;;;4.63;;
12972;SDS011;6551;51.056;9.466;2023-04-08T04:01:40;3.77;;;2.83;;
12972;SDS011;6551;51.056;9.466;2023-04-08T04:04:06;3.17;;;2.70;;
12972;SDS011;6551;51.056;9.466;2023-04-08T04:06:31;4.37;;;3.87;;
12972;SDS011;6551;51.056;9.466;2023-04-08T04:08:57;3.47;;;2.40;;
12972;SDS011;6551;51.056;9.466;2023-04-08T04:11:24;7.43;;;3.77;;
12972;SDS011;6551;51.056;9.466;2023-04-08T04:13:50;10.57;;;6.07;;
12972;SDS011;6551;51.056;9.466;2023-04-08T04:16:17;17.03;;;10.80;;
12972;SDS011;6551;51.056;9.466;2023-04-08T04:18:43;5.93;;;4.53;;
12972;SDS011;6551;51.056;9.466;2023-04-08T04:21:09;8.10;;;5.23;;
12972;SDS011;6551;51.056;9.466;2023-04-08T04:23:39;4.57;;;3.20;;
12972;SDS011;6551;51.056;9.466;2023-04-08T04:26:08;6.77;;;4.40;;
12972;SDS011;6551;51.056;9.466;2023-04-08T04:28:34;8.17;;;4.93;;
12972;SDS011;6551;51.056;9.466;2023-04-08T04:31:02;7.43;;;4.43;;
12972;SDS011;6551;51.056;9.466;2023-04-08T04:33:30;6.23;;;3.50;;
12972;SDS011;6551;51.056;9.466;2023-04-08T04:35:56;5.93;;;3.80;;
12972;SDS011;6551;51.056;9.466;2023-04-08T04:38:22;5.67;;;4.07;;
12972;SDS011;6551;51.056;9.466;2023-04-08T04:40:49;7.90;;;5.60;;
12972;SDS011;6551;51.056;9.466;2023-04-08T04:43:15;3.73;;;2.93;;
12972;SDS011;6551;51.056;9.466;2023-04-08T04:45:42;3.93;;;3.20;;
12972;SDS011;6551;51.056;9.466;2023-04-08T04:48:09;4.83;;;4.07;;
12972;SDS011;6551;51.056;9.466;2023-04-08T04:50:36;6.60;;;5.20;;
12972;SDS011;6551;51.056;9.466;2023-04-08T04:53:01;8.57;;;4.77;;
12972;SDS011;6551;51.056;9.466;2023-04-08T04:55:28;5.27;;;3.20;;
12972;SDS011;6551;51.056;9.466;2023-04-08T04:57:54;4.50;;;3.07;;
12972;SDS011;6551;51.056;9.466;2023-04-08T05:00:20;5.73;;;3.60;;
12972;SDS011;6551;51.056;9.466;2023-04-08T05:02:47;5.40;;;3.43;;
12972;SDS011;6551;51.056;9.466;2023-04-08T05:05:12;4.10;;;2.73;;
12972;SDS011;6551;51.056;9.466;2023-04-08T05:07:38;5.47;;;3.23;;
12972;SDS011;6551;51.056;9.466;2023-04-08T05:10:05;4.40;;;2.87;;
12972;SDS011;6551;51.056;9.466;2023-04-08T05:12:31;3.67;;;2.77;;
12972;SDS011;6551;51.056;9.466;2023-04-08T05:14:57;3.17;;;2.33;;
12972;SDS011;6551;51.056;9.466;2023-04-08T05:17:24;4.80;;;3.10;;
12972;SDS011;6551;51.056;9.466;2023-04-08T05:19:52;6.90;;;5.50;;
12972;SDS011;6551;51.056;9.466;2023-04-08T05:22:19;4.50;;;3.30;;
12972;SDS011;6551;51.056;9.466;2023-04-08T05:24:44;4.50;;;3.30;;
12972;SDS011;6551;51.056;9.466;2023-04-08T05:27:10;5.50;;;3.70;;
12972;SDS011;6551;51.056;9.466;2023-04-08T05:29:35;3.53;;;2.63;;
12972;SDS011;6551;51.056;9.466;2023-04-08T05:32:01;4.17;;;3.03;;
12972;SDS011;6551;51.056;9.466;2023-04-08T05:34:27;3.60;;;2.73;;
12972;SDS011;6551;51.056;9.466;2023-04-08T05:36:54;4.37;;;3.37;;
12972;SDS011;6551;51.056;9.466;2023-04-08T05:39:20;3.80;;;2.50;;
12972;SDS011;6551;51.056;9.466;2023-04-08T05:41:45;4.23;;;3.43;;
12972;SDS011;6551;51.056;9.466;2023-04-08T05:44:12;3.83;;;2.90;;
12972;SDS011;6551;51.056;9.466;2023-04-08T05:46:39;3.97;;;2.87;;
12972;SDS011;6551;51.056;9.466;2023-04-08T05:49:05;4.33;;;3.00;;
12972;SDS011;6551;51.056;9.466;2023-04-08T05:51:30;4.57;;;2.70;;
12972;SDS011;6551;51.056;9.466;2023-04-08T05:53:56;3.33;;;2.63;;
12972;SDS011;6551;51.056;9.466;2023-04-08T05:56:23;3.70;;;2.60;;
12972;SDS011;6551;51.056;9.466;2023-04-08T05:58:49;3.50;;;2.77;;
12972;SDS011;6551;51.056;9.466;2023-04-08T06:01:15;4.10;;;2.60;;
12972;SDS011;6551;51.056;9.466;2023-04-08T06:03:42;3.73;;;2.57;;
12972;SDS011;6551;51.056;9.466;2023-04-08T06:06:08;3.63;;;2.70;;
12972;SDS011;6551;51.056;9.466;2023-04-08T06:08:35;4.07;;;2.50;;
12972;SDS011;6551;51.056;9.466;2023-04-08T06:11:01;5.50;;;3.27;;
12972;SDS011;6551;51.056;9.466;2023-04-08T06:13:29;5.70;;;3.67;;
12972;SDS011;6551;51.056;9.466;2023-04-08T06:15:55;4.30;;;3.27;;
12972;SDS011;6551;51.056;9.466;2023-04-08T06:18:22;4.10;;;3.50;;
12972;SDS011;6551;51.056;9.466;2023-04-08T06:20:49;13.23;;;8.63;;
12972;SDS011;6551;51.056;9.466;2023-04-08T06:23:15;5.30;;;3.97;;
12972;SDS011;6551;51.056;9.466;2023-04-08T06:25:40;5.33;;;3.87;;
12972;SDS011;6551;51.056;9.466;2023-04-08T06:28:06;5.53;;;4.07;;
12972;SDS011;6551;51.056;9.466;2023-04-08T06:30:32;5.37;;;3.57;;
12972;SDS011;6551;51.056;9.466;2023-04-08T06:32:58;7.77;;;4.53;;
12972;SDS011;6551;51.056;9.466;2023-04-08T06:35:23;7.40;;;3.20;;
12972;SDS011;6551;51.056;9.466;2023-04-08T06:37:49;10.37;;;6.60;;
12972;SDS011;6551;51.056;9.466;2023-04-08T06:40:15;6.13;;;3.50;;
12972;SDS011;6551;51.056;9.466;2023-04-08T06:42:40;7.30;;;5.23;;
12972;SDS011;6551;51.056;9.466;2023-04-08T06:45:09;8.97;;;6.43;;
12972;SDS011;6551;51.056;9.466;2023-04-08T06:47:35;9.33;;;5.77;;
12972;SDS011;6551;51.056;9.466;2023-04-08T06:50:02;8.77;;;5.67;;
12972;SDS011;6551;51.056;9.466;2023-04-08T06:52:28;4.83;;;3.20;;
12972;SDS011;6551;51.056;9.466;2023-04-08T06:54:55;5.07;;;4.00;;
12972;SDS011;6551;51.056;9.466;2023-04-08T06:57:22;4.07;;;3.03;;
12972;SDS011;6551;51.056;9.466;2023-04-08T06:59:50;8.50;;;5.00;;
12972;SDS011;6551;51.056;9.466;2023-04-08T07:02:19;9.37;;;5.73;;
12972;SDS011;6551;51.056;9.466;2023-04-08T07:04:48;6.73;;;4.80;;
12972;SDS011;6551;51.056;9.466;2023-04-08T07:07:15;6.57;;;4.93;;
12972;SDS011;6551;51.056;9.466;2023-04-08T07:09:40;4.80;;;3.27;;
12972;SDS011;6551;51.056;9.466;2023-04-08T07:12:07;9.10;;;4.80;;
12972;SDS011;6551;51.056;9.466;2023-04-08T07:14:34;14.53;;;9.20;;
12972;SDS011;6551;51.056;9.466;2023-04-08T07:17:00;10.53;;;5.13;;
12972;SDS011;6551;51.056;9.466;2023-04-08T07:19:25;7.30;;;4.87;;
12972;SDS011;6551;51.056;9.466;2023-04-08T07:21:53;11.77;;;5.67;;
12972;SDS011;6551;51.056;9.466;2023-04-08T07:24:18;11.60;;;7.73;;
12972;SDS011;6551;51.056;9.466;2023-04-08T07:26:44;5.10;;;3.47;;
12972;SDS011;6551;51.056;9.466;2023-04-08T07:29:12;16.63;;;9.07;;
12972;SDS011;6551;51.056;9.466;2023-04-08T07:31:43;19.23;;;10.00;;
12972;SDS011;6551;51.056;9.466;2023-04-08T07:34:09;22.57;;;15.03;;
12972;SDS011;6551;51.056;9.466;2023-04-08T07:36:35;14.50;;;10.70;;
12972;SDS011;6551;51.056;9.466;2023-04-08T07:39:02;23.00;;;14.53;;
12972;SDS011;6551;51.056;9.466;2023-04-08T07:41:28;14.67;;;10.33;;
12972;SDS011;6551;51.056;9.466;2023-04-08T07:43:54;16.57;;;11.27;;
12972;SDS011;6551;51.056;9.466;2023-04-08T07:46:20;22.50;;;16.10;;
12972;SDS011;6551;51.056;9.466;2023-04-08T07:48:47;17.63;;;14.03;;
12972;SDS011;6551;51.056;9.466;2023-04-08T07:51:13;16.23;;;11.73;;
12972;SDS011;6551;51.056;9.466;2023-04-08T07:53:40;20.17;;;13.77;;
12972;SDS011;6551;51.056;9.466;2023-04-08T07:56:12;23.60;;;15.27;;
12972;SDS011;6551;51.056;9.466;2023-04-08T07:58:40;17.63;;;12.77;;
12972;SDS011;6551;51.056;9.466;2023-04-08T08:01:16;22.33;;;13.80;;
12972;SDS011;6551;51.056;9.466;2023-04-08T08:03:47;23.13;;;14.37;;
12972;SDS011;6551;51.056;9.466;2023-04-08T08:06:14;26.30;;;15.40;;
12972;SDS011;6551;51.056;9.466;2023-04-08T08:08:40;20.10;;;14.50;;
12972;SDS011;6551;51.056;9.466;2023-04-08T08:11:06;22.87;;;14.63;;
12972;SDS011;6551;51.056;9.466;2023-04-08T08:13:33;23.77;;;16.17;;
12972;SDS011;6551;51.056;9.466;2023-04-08T08:15:59;20.20;;;13.43;;
12972;SDS011;6551;51.056;9.466;2023-04-08T08:18:25;22.90;;;14.57;;
12972;SDS011;6551;51.056;9.466;2023-04-08T08:20:51;23.20;;;15.33;;
12972;SDS011;6551;51.056;9.466;2023-04-08T08:23:18;27.43;;;16.93;;
12972;SDS011;6551;51.056;9.466;2023-04-08T08:25:45;35.90;;;19.10;;
12972;SDS011;6551;51.056;9.466;2023-04-08T08:28:11;21.00;;;14.97;;
12972;SDS011;6551;51.056;9.466;2023-04-08T08:30:37;23.70;;;15.73;;
12972;SDS011;6551;51.056;9.466;2023-04-08T08:33:05;29.77;;;17.03;;
12972;SDS011;6551;51.056;9.466;2023-04-08T08:35:32;31.07;;;18.07;;
12972;SDS011;6551;51.056;9.466;2023-04-08T08:37:57;37.17;;;21.53;;
12972;SDS011;6551;51.056;9.466;2023-04-08T08:40:24;37.17;;;22.67;;
12972;SDS011;6551;51.056;9.466;2023-04-08T08:42:52;43.17;;;21.67;;
12972;SDS011;6551;51.056;9.466;2023-04-08T08:45:19;52.53;;;21.87;;
12972;SDS011;6551;51.056;9.466;2023-04-08T08:47:45;36.53;;;22.97;;
12972;SDS011;6551;51.056;9.466;2023-04-08T08:50:11;45.80;;;22.47;;
12972;SDS011;6551;51.056;9.466;2023-04-08T08:52:37;43.57;;;22.87;;
12972;SDS011;6551;51.056;9.466;2023-04-08T08:55:03;38.53;;;22.33;;
12972;SDS011;6551;51.056;9.466;2023-04-08T08:57:28;40.17;;;24.77;;
12972;SDS011;6551;51.056;9.466;2023-04-08T08:59:57;54.37;;;31.07;;
12972;SDS011;6551;51.056;9.466;2023-04-08T09:02:23;42.57;;;28.27;;
12972;SDS011;6551;51.056;9.466;2023-04-08T09:04:56;39.90;;;25.23;;
12972;SDS011;6551;51.056;9.466;2023-04-08T09:07:30;33.53;;;21.83;;
12972;SDS011;6551;51.056;9.466;2023-04-08T09:09:59;37.00;;;24.67;;
12972;SDS011;6551;51.056;9.466;2023-04-08T09:12:26;30.87;;;21.00;;
12972;SDS011;6551;51.056;9.466;2023-04-08T09:15:08;31.80;;;22.97;;
12972;SDS011;6551;51.056;9.466;2023-04-08T09:17:36;31.13;;;20.40;;
12972;SDS011;6551;51.056;9.466;2023-04-08T09:25:30;37.63;;;23.90;;
12972;SDS011;6551;51.056;9.466;2023-04-08T09:27:57;33.30;;;22.07;;
12972;SDS011;6551;51.056;9.466;2023-04-08T09:30:25;38.70;;;23.87;;
12972;SDS011;6551;51.056;9.466;2023-04-08T09:32:54;31.33;;;20.70;;
12972;SDS011;6551;51.056;9.466;2023-04-08T09:35:24;33.33;;;21.70;;
12972;SDS011;6551;51.056;9.466;2023-04-08T09:37:49;28.57;;;19.17;;
12972;SDS011;6551;51.056;9.466;2023-04-08T09:40:16;29.37;;;20.63;;
12972;SDS011;6551;51.056;9.466;2023-04-08T09:42:48;28.27;;;19.93;;
12972;SDS011;6551;51.056;9.466;2023-04-08T09:45:19;32.63;;;21.20;;
12972;SDS011;6551;51.056;9.466;2023-04-08T09:47:51;37.80;;;21.43;;
12972;SDS011;6551;51.056;9.466;2023-04-08T09:50:42;28.30;;;18.90;;
12972;SDS011;6551;51.056;9.466;2023-04-08T09:53:15;26.63;;;18.53;;
12972;SDS011;6551;51.056;9.466;2023-04-08T09:55:56;25.63;;;18.30;;
12972;SDS011;6551;51.056;9.466;2023-04-08T09:58:27;26.17;;;18.23;;
12972;SDS011;6551;51.056;9.466;2023-04-08T10:00:57;23.77;;;17.10;;
12972;SDS011;6551;51.056;9.466;2023-04-08T10:03:29;25.67;;;19.27;;
12972;SDS011;6551;51.056;9.466;2023-04-08T10:06:01;24.70;;;18.13;;
12972;SDS011;6551;51.056;9.466;2023-04-08T10:08:29;24.70;;;17.17;;
12972;SDS011;6551;51.056;9.466;2023-04-08T10:10:56;21.50;;;15.93;;
12972;SDS011;6551;51.056;9.466;2023-04-08T10:13:23;30.90;;;17.80;;
12972;SDS011;6551;51.056;9.466;2023-04-08T10:16:38;21.97;;;15.50;;
12972;SDS011;6551;51.056;9.466;2023-04-08T10:18:50;23.17;;;14.70;;
12972;SDS011;6551;51.056;9.466;2023-04-08T10:21:31;16.87;;;13.90;;
12972;SDS011;6551;51.056;9.466;2023-04-08T10:23:57;28.50;;;17.50;;
12972;SDS011;6551;51.056;9.466;2023-04-08T10:26:33;21.93;;;15.63;;
12972;SDS011;6551;51.056;9.466;2023-04-08T10:31:55;22.37;;;14.67;;
12972;SDS011;6551;51.056;9.466;2023-04-08T10:34:24;19.93;;;15.07;;
12972;SDS011;6551;51.056;9.466;2023-04-08T10:36:53;19.40;;;14.37;;
12972;SDS011;6551;51.056;9.466;2023-04-08T10:39:21;19.13;;;14.60;;
12972;SDS011;6551;51.056;9.466;2023-04-08T10:41:50;18.57;;;14.37;;
12972;SDS011;6551;51.056;9.466;2023-04-08T10:44:19;21.67;;;15.90;;
12972;SDS011;6551;51.056;9.466;2023-04-08T10:46:52;18.43;;;15.07;;
12972;SDS011;6551;51.056;9.466;2023-04-08T10:49:20;17.47;;;14.33;;
12972;SDS011;6551;51.056;9.466;2023-04-08T10:51:46;20.17;;;14.63;;
12972;SDS011;6551;51.056;9.466;2023-04-08T10:54:12;20.17;;;14.47;;
12972;SDS011;6551;51.056;9.466;2023-04-08T10:56:51;17.20;;;13.93;;
12972;SDS011;6551;51.056;9.466;2023-04-08T10:59:28;19.43;;;14.43;;
12972;SDS011;6551;51.056;9.466;2023-04-08T11:01:56;18.50;;;13.70;;
12972;SDS011;6551;51.056;9.466;2023-04-08T11:04:24;18.10;;;13.10;;
12972;SDS011;6551;51.056;9.466;2023-04-08T11:06:51;15.20;;;12.80;;
12972;SDS011;6551;51.056;9.466;2023-04-08T11:09:18;19.97;;;13.07;;
12972;SDS011;6551;51.056;9.466;2023-04-08T11:11:44;19.37;;;13.83;;
12972;SDS011;6551;51.056;9.466;2023-04-08T11:14:11;19.07;;;13.77;;
12972;SDS011;6551;51.056;9.466;2023-04-08T11:16:38;16.50;;;12.90;;
12972;SDS011;6551;51.056;9.466;2023-04-08T11:19:06;18.97;;;13.60;;
12972;SDS011;6551;51.056;9.466;2023-04-08T11:21:35;19.83;;;13.27;;
12972;SDS011;6551;51.056;9.466;2023-04-08T11:24:08;18.43;;;13.70;;
12972;SDS011;6551;51.056;9.466;2023-04-08T11:26:36;21.73;;;13.73;;
12972;SDS011;6551;51.056;9.466;2023-04-08T11:29:03;17.07;;;12.90;;
12972;SDS011;6551;51.056;9.466;2023-04-08T11:31:36;18.00;;;13.60;;
12972;SDS011;6551;51.056;9.466;2023-04-08T11:34:02;16.13;;;12.80;;
12972;SDS011;6551;51.056;9.466;2023-04-08T11:36:30;19.03;;;12.90;;
12972;SDS011;6551;51.056;9.466;2023-04-08T11:38:56;27.43;;;16.50;;
12972;SDS011;6551;51.056;9.466;2023-04-08T11:41:23;18.53;;;12.67;;
12972;SDS011;6551;51.056;9.466;2023-04-08T11:43:52;40.73;;;25.40;;
12972;SDS011;6551;51.056;9.466;2023-04-08T11:46:21;153.67;;;120.17;;
12972;SDS011;6551;51.056;9.466;2023-04-08T11:49:01;22.07;;;15.63;;
12972;SDS011;6551;51.056;9.466;2023-04-08T11:51:34;26.33;;;16.57;;
12972;SDS011;6551;51.056;9.466;2023-04-08T11:54:28;45.10;;;28.73;;
12972;SDS011;6551;51.056;9.466;2023-04-08T11:56:56;25.43;;;16.03;;
12972;SDS011;6551;51.056;9.466;2023-04-08T11:59:24;17.77;;;12.23;;
12972;SDS011;6551;51.056;9.466;2023-04-08T12:01:51;20.73;;;14.10;;
12972;SDS011;6551;51.056;9.466;2023-04-08T12:04:18;21.47;;;12.23;;
12972;SDS011;6551;51.056;9.466;2023-04-08T12:06:44;20.90;;;12.50;;
12972;SDS011;6551;51.056;9.466;2023-04-08T12:09:11;21.63;;;12.57;;
12972;SDS011;6551;51.056;9.466;2023-04-08T12:11:37;18.50;;;12.80;;
12972;SDS011;6551;51.056;9.466;2023-04-08T12:14:03;18.77;;;12.67;;
12972;SDS011;6551;51.056;9.466;2023-04-08T12:16:29;19.47;;;12.40;;
12972;SDS011;6551;51.056;9.466;2023-04-08T12:18:56;17.83;;;12.27;;
12972;SDS011;6551;51.056;9.466;2023-04-08T12:21:21;32.37;;;14.77;;
12972;SDS011;6551;51.056;9.466;2023-04-08T12:23:49;13.57;;;10.47;;
12972;SDS011;6551;51.056;9.466;2023-04-08T12:26:15;12.57;;;9.70;;
12972;SDS011;6551;51.056;9.466;2023-04-08T12:28:41;16.73;;;11.53;;
12972;SDS011;6551;51.056;9.466;2023-04-08T12:31:07;19.43;;;12.50;;
12972;SDS011;6551;51.056;9.466;2023-04-08T12:33:37;17.50;;;11.70;;
12972;SDS011;6551;51.056;9.466;2023-04-08T12:36:04;17.23;;;12.70;;
12972;SDS011;6551;51.056;9.466;2023-04-08T12:38:30;18.70;;;12.43;;
12972;SDS011;6551;51.056;9.466;2023-04-08T12:40:58;15.93;;;11.57;;
12972;SDS011;6551;51.056;9.466;2023-04-08T12:43:24;18.53;;;11.83;;
12972;SDS011;6551;51.056;9.466;2023-04-08T12:45:51;19.00;;;13.37;;
12972;SDS011;6551;51.056;9.466;2023-04-08T12:48:16;16.17;;;11.50;;
12972;SDS011;6551;51.056;9.466;2023-04-08T12:50:42;21.17;;;13.50;;
12972;SDS011;6551;51.056;9.466;2023-04-08T12:53:08;18.37;;;11.87;;
12972;SDS011;6551;51.056;9.466;2023-04-08T12:55:34;17.80;;;12.97;;
12972;SDS011;6551;51.056;9.466;2023-04-08T12:58:00;19.60;;;12.53;;
12972;SDS011;6551;51.056;9.466;2023-04-08T13:00:26;18.73;;;11.70;;
12972;SDS011;6551;51.056;9.466;2023-04-08T13:02:52;19.93;;;13.07;;
12972;SDS011;6551;51.056;9.466;2023-04-08T13:05:18;20.07;;;13.20;;
12972;SDS011;6551;51.056;9.466;2023-04-08T13:07:44;17.10;;;12.10;;
12972;SDS011;6551;51.056;9.466;2023-04-08T13:10:11;18.07;;;12.30;;
12972;SDS011;6551;51.056;9.466;2023-04-08T13:12:38;16.87;;;11.87;;
12972;SDS011;6551;51.056;9.466;2023-04-08T13:15:05;17.40;;;12.40;;
12972;SDS011;6551;51.056;9.466;2023-04-08T13:17:32;19.70;;;13.80;;
12972;SDS011;6551;51.056;9.466;2023-04-08T13:19:58;19.67;;;14.00;;
12972;SDS011;6551;51.056;9.466;2023-04-08T13:22:23;20.63;;;14.07;;
12972;SDS011;6551;51.056;9.466;2023-04-08T13:24:50;20.10;;;14.30;;
12972;SDS011;6551;51.056;9.466;2023-04-08T13:27:17;27.73;;;15.97;;
12972;SDS011;6551;51.056;9.466;2023-04-08T13:29:42;25.70;;;15.17;;
12972;SDS011;6551;51.056;9.466;2023-04-08T13:32:08;26.37;;;16.70;;
12972;SDS011;6551;51.056;9.466;2023-04-08T13:34:35;20.67;;;13.80;;
12972;SDS011;6551;51.056;9.466;2023-04-08T13:37:00;22.13;;;12.53;;
12972;SDS011;6551;51.056;9.466;2023-04-08T13:39:27;18.53;;;13.00;;
12972;SDS011;6551;51.056;9.466;2023-04-08T13:41:52;21.33;;;14.13;;
12972;SDS011;6551;51.056;9.466;2023-04-08T13:44:19;25.27;;;15.80;;
12972;SDS011;6551;51.056;9.466;2023-04-08T13:46:46;17.97;;;12.67;;
12972;SDS011;6551;51.056;9.466;2023-04-08T13:49:11;19.87;;;13.67;;
12972;SDS011;6551;51.056;9.466;2023-04-08T13:51:37;18.17;;;13.10;;
12972;SDS011;6551;51.056;9.466;2023-04-08T13:54:03;23.73;;;13.90;;
12972;SDS011;6551;51.056;9.466;2023-04-08T13:56:29;18.27;;;13.00;;
12972;SDS011;6551;51.056;9.466;2023-04-08T13:58:56;17.23;;;11.67;;
12972;SDS011;6551;51.056;9.466;2023-04-08T14:01:22;27.37;;;14.50;;
12972;SDS011;6551;51.056;9.466;2023-04-08T14:03:48;25.07;;;15.00;;
12972;SDS011;6551;51.056;9.466;2023-04-08T14:06:14;24.00;;;14.00;;
12972;SDS011;6551;51.056;9.466;2023-04-08T14:08:40;18.63;;;13.03;;
12972;SDS011;6551;51.056;9.466;2023-04-08T14:11:07;22.20;;;13.77;;
12972;SDS011;6551;51.056;9.466;2023-04-08T14:13:33;22.20;;;13.67;;
12972;SDS011;6551;51.056;9.466;2023-04-08T14:15:58;19.73;;;13.00;;
12972;SDS011;6551;51.056;9.466;2023-04-08T14:18:27;30.23;;;22.80;;
12972;SDS011;6551;51.056;9.466;2023-04-08T14:20:54;21.17;;;14.33;;
12972;SDS011;6551;51.056;9.466;2023-04-08T14:23:21;17.17;;;12.97;;
12972;SDS011;6551;51.056;9.466;2023-04-08T14:25:47;18.47;;;12.33;;
12972;SDS011;6551;51.056;9.466;2023-04-08T14:28:12;20.17;;;13.40;;
12972;SDS011;6551;51.056;9.466;2023-04-08T14:30:39;20.60;;;14.23;;
12972;SDS011;6551;51.056;9.466;2023-04-08T14:33:05;18.60;;;13.00;;
12972;SDS011;6551;51.056;9.466;2023-04-08T14:35:31;19.87;;;12.80;;
12972;SDS011;6551;51.056;9.466;2023-04-08T14:37:57;20.20;;;13.33;;
12972;SDS011;6551;51.056;9.466;2023-04-08T14:40:22;18.27;;;13.33;;
12972;SDS011;6551;51.056;9.466;2023-04-08T14:42:49;19.27;;;14.10;;
12972;SDS011;6551;51.056;9.466;2023-04-08T14:45:16;22.47;;;14.27;;
12972;SDS011;6551;51.056;9.466;2023-04-08T14:47:42;20.70;;;14.50;;
12972;SDS011;6551;51.056;9.466;2023-04-08T14:50:08;29.73;;;18.83;;
12972;SDS011;6551;51.056;9.466;2023-04-08T14:52:35;28.47;;;19.53;;
12972;SDS011;6551;51.056;9.466;2023-04-08T14:55:01;17.43;;;12.43;;
12972;SDS011;6551;51.056;9.466;2023-04-08T14:57:27;18.50;;;12.67;;
12972;SDS011;6551;51.056;9.466;2023-04-08T14:59:54;20.47;;;14.00;;
12972;SDS011;6551;51.056;9.466;2023-04-08T15:02:19;16.73;;;13.00;;
12972;SDS011;6551;51.056;9.466;2023-04-08T15:04:45;20.03;;;14.80;;